Time;durP1;ratioP1;P1;durP2;ratioP2;P2;SDS_P1;SDS_P2;PMS_P1;PMS_P2;Temp;Humidity;BMP_temperature;BMP_pressure;BME280_temperature;BME280_humidity;BME280_pressure;Samples;Min_cycle;Max_cycle;Signal;HPM_P1;HPM_P2
2023/08/09 00:02:11;;;;;;;3.95;2.42;;;16.40;99.90;;;;;;5066572;28;20224;-69
2023/08/09 00:05:02;;;;;;;4.50;2.65;;;16.50;99.90;;;;;;5074063;28;20295;-71
2023/08/09 00:07:51;;;;;;;4.18;2.60;;;16.60;99.90;;;;;;5079840;28;20227;-70
2023/08/09 00:10:39;;;;;;;4.60;2.60;;;16.60;99.90;;;;;;5078760;28;20228;-70
2023/08/09 00:13:30;;;;;;;6.07;2.83;;;16.60;99.90;;;;;;5067834;28;20276;-70
2023/08/09 00:16:19;;;;;;;3.28;2.40;;;16.60;99.90;;;;;;5064453;28;20216;-69
2023/08/09 00:19:09;;;;;;;4.18;3.03;;;16.50;99.90;;;;;;5073742;28;20219;-70
2023/08/09 00:22:00;;;;;;;5.63;2.60;;;16.60;99.90;;;;;;5069189;28;20311;-70
2023/08/09 00:24:49;;;;;;;3.50;2.35;;;16.40;99.90;;;;;;5077521;28;20224;-70
2023/08/09 00:27:39;;;;;;;5.28;2.40;;;16.40;99.90;;;;;;5075503;28;20306;-70
2023/08/09 00:30:28;;;;;;;5.50;2.53;;;16.40;99.90;;;;;;5065122;28;20271;-69
2023/08/09 00:33:16;;;;;;;4.10;2.30;;;16.40;99.90;;;;;;5059903;28;20442;-67
2023/08/09 00:36:06;;;;;;;6.20;2.60;;;16.40;99.90;;;;;;5067077;28;20361;-67
2023/08/09 00:38:56;;;;;;;3.50;2.38;;;16.40;99.90;;;;;;5076197;28;20227;-69
2023/08/09 00:41:45;;;;;;;4.07;2.33;;;16.40;99.90;;;;;;5063071;28;20235;-67
2023/08/09 00:44:34;;;;;;;3.45;2.35;;;16.30;99.90;;;;;;5057744;28;20228;-67
2023/08/09 00:47:23;;;;;;;4.50;2.40;;;16.30;99.90;;;;;;5076578;28;20232;-67
2023/08/09 00:50:13;;;;;;;3.72;2.53;;;16.20;99.90;;;;;;5058185;28;20274;-67
2023/08/09 00:53:03;;;;;;;4.50;2.50;;;16.30;99.90;;;;;;5061821;28;20300;-67
2023/08/09 00:55:54;;;;;;;4.07;2.72;;;16.20;99.90;;;;;;5067456;28;20250;-66
2023/08/09 00:58:43;;;;;;;3.63;2.55;;;16.20;99.90;;;;;;5068698;28;20619;-66
2023/08/09 01:01:32;;;;;;;5.72;2.42;;;16.10;99.90;;;;;;5062300;28;20823;-67
2023/08/09 01:04:21;;;;;;;3.35;2.65;;;16.20;99.90;;;;;;5070121;28;20714;-67
2023/08/09 01:07:16;;;;;;;3.53;2.80;;;16.20;99.90;;;;;;5063633;28;20255;-67
2023/08/09 01:10:14;;;;;;;4.40;2.80;;;16.10;99.90;;;;;;5071674;28;20338;-65
2023/08/09 01:13:08;;;;;;;5.00;2.92;;;16.20;99.90;;;;;;5063702;28;20571;-65
2023/08/09 01:15:58;;;;;;;3.35;2.53;;;16.20;99.90;;;;;;5074845;28;20231;-65
2023/08/09 01:18:49;;;;;;;5.75;2.60;;;16.20;99.90;;;;;;5057130;28;20220;-65
2023/08/09 01:21:41;;;;;;;2.88;2.20;;;16.20;99.90;;;;;;5065285;28;20357;-66
2023/08/09 01:24:32;;;;;;;4.65;2.40;;;16.20;99.90;;;;;;5070851;28;20235;-67
2023/08/09 01:27:21;;;;;;;5.72;2.53;;;16.10;99.90;;;;;;5059494;28;20226;-68
2023/08/09 01:30:11;;;;;;;3.13;2.42;;;16.20;99.90;;;;;;5057866;28;20720;-67
2023/08/09 01:33:00;;;;;;;4.05;2.50;;;16.10;99.90;;;;;;5070858;28;21034;-67
2023/08/09 01:35:55;;;;;;;5.18;2.63;;;16.20;99.90;;;;;;5070497;28;20231;-67
2023/08/09 01:38:48;;;;;;;4.70;2.40;;;16.20;99.90;;;;;;5075481;28;20694;-69
2023/08/09 01:41:39;;;;;;;4.07;2.28;;;16.20;99.90;;;;;;5065756;28;20238;-70
2023/08/09 01:44:29;;;;;;;3.17;2.25;;;16.20;99.90;;;;;;5073942;28;20726;-72
2023/08/09 01:47:19;;;;;;;2.70;2.30;;;16.20;99.90;;;;;;5058592;28;20235;-70
2023/08/09 01:50:18;;;;;;;3.92;2.50;;;16.20;99.90;;;;;;5076073;28;20338;-74
2023/08/09 01:53:07;;;;;;;3.60;2.53;;;16.20;99.90;;;;;;5079211;28;20231;-72
2023/08/09 01:55:57;;;;;;;4.18;2.30;;;16.20;99.90;;;;;;5076887;28;21284;-71
2023/08/09 01:58:47;;;;;;;5.78;2.50;;;16.20;99.90;;;;;;5059553;28;20691;-73
2023/08/09 02:01:36;;;;;;;2.85;2.28;;;16.20;99.90;;;;;;5073780;28;20228;-72
2023/08/09 02:04:25;;;;;;;4.55;2.00;;;16.20;99.90;;;;;;5069777;28;20235;-70
2023/08/09 02:07:14;;;;;;;3.92;2.40;;;16.30;99.90;;;;;;5059794;28;20271;-72
2023/08/09 02:10:05;;;;;;;3.10;2.35;;;16.20;99.90;;;;;;5042585;28;20257;-72
2023/08/09 02:12:56;;;;;;;3.78;2.38;;;16.20;99.90;;;;;;5055644;28;20235;-71
2023/08/09 02:15:46;;;;;;;4.57;2.13;;;16.20;99.90;;;;;;5056775;28;20234;-72
2023/08/09 02:18:36;;;;;;;2.88;2.13;;;16.10;99.90;;;;;;5041986;28;20263;-72
2023/08/09 02:21:26;;;;;;;5.35;2.55;;;16.10;99.90;;;;;;5057316;28;20235;-72
2023/08/09 02:24:15;;;;;;;3.55;2.33;;;16.00;99.90;;;;;;5058649;28;20224;-72
2023/08/09 02:27:05;;;;;;;4.47;2.40;;;16.00;99.90;;;;;;5058086;28;20358;-73
2023/08/09 02:29:57;;;;;;;4.45;2.85;;;16.00;99.90;;;;;;5055742;28;20235;-72
2023/08/09 02:32:50;;;;;;;2.92;2.15;;;15.90;99.90;;;;;;5055960;28;20303;-70
2023/08/09 02:35:52;;;;;;;4.10;2.40;;;15.90;99.90;;;;;;5059309;28;20247;-69
2023/08/09 02:38:41;;;;;;;2.80;2.40;;;16.00;99.90;;;;;;5055381;28;20232;-70
2023/08/09 02:41:30;;;;;;;2.63;2.03;;;15.90;99.90;;;;;;5055530;28;20266;-69
2023/08/09 02:44:19;;;;;;;4.97;2.15;;;15.90;99.90;;;;;;5052221;28;20932;-69
2023/08/09 02:47:08;;;;;;;6.07;2.20;;;15.90;99.90;;;;;;5060163;28;20267;-70
2023/08/09 02:49:58;;;;;;;4.75;2.40;;;15.90;99.90;;;;;;5044190;28;20261;-70
2023/08/09 02:52:47;;;;;;;4.25;2.35;;;15.90;99.90;;;;;;5059918;28;20224;-71
2023/08/09 02:55:37;;;;;;;2.85;2.50;;;15.90;99.90;;;;;;5060336;28;20264;-71
2023/08/09 02:58:26;;;;;;;4.55;2.20;;;15.90;99.90;;;;;;5046517;28;20212;-68
2023/08/09 03:01:15;;;;;;;4.57;2.47;;;15.90;99.90;;;;;;5036339;28;20527;-68
2023/08/09 03:04:04;;;;;;;3.40;2.38;;;15.90;99.90;;;;;;5039296;28;20229;-69
2023/08/09 03:06:58;;;;;;;3.55;2.58;;;15.80;99.90;;;;;;5062664;28;20223;-68
2023/08/09 03:09:48;;;;;;;3.67;2.38;;;15.80;99.90;;;;;;5058067;28;20228;-68
2023/08/09 03:12:37;;;;;;;2.47;1.90;;;15.70;99.90;;;;;;5048372;28;20221;-68
2023/08/09 03:15:26;;;;;;;4.90;2.63;;;15.70;99.90;;;;;;5046532;28;20225;-69
2023/08/09 03:18:15;;;;;;;4.43;2.40;;;15.70;99.90;;;;;;5040592;28;20640;-69
2023/08/09 03:21:04;;;;;;;3.00;2.25;;;15.70;99.90;;;;;;5052379;28;20223;-69
2023/08/09 03:23:55;;;;;;;2.88;2.30;;;15.60;99.90;;;;;;5046254;28;20771;-67
2023/08/09 03:26:44;;;;;;;3.20;2.15;;;15.60;99.90;;;;;;5046545;28;20988;-68
2023/08/09 03:29:36;;;;;;;2.92;2.20;;;15.50;99.90;;;;;;5043515;28;20339;-70
2023/08/09 03:32:25;;;;;;;3.88;2.40;;;15.60;99.90;;;;;;5044688;28;20221;-68
2023/08/09 03:35:14;;;;;;;2.78;2.10;;;15.60;99.90;;;;;;5047985;28;20323;-69
2023/08/09 03:38:05;;;;;;;3.05;2.10;;;15.60;99.90;;;;;;5035347;28;20220;-68
2023/08/09 03:40:55;;;;;;;2.45;2.00;;;15.60;99.90;;;;;;5040669;28;20527;-68
2023/08/09 03:43:45;;;;;;;3.08;2.38;;;15.40;99.90;;;;;;5041155;28;20239;-68
2023/08/09 03:46:34;;;;;;;4.53;2.28;;;15.40;99.90;;;;;;5058960;28;20680;-68
2023/08/09 03:49:23;;;;;;;4.10;2.00;;;15.50;99.90;;;;;;5043718;28;20656;-68
2023/08/09 03:52:12;;;;;;;3.50;2.28;;;15.40;99.90;;;;;;5051063;28;20691;-70
2023/08/09 03:55:01;;;;;;;4.32;2.60;;;15.40;99.90;;;;;;5058064;28;20328;-68
2023/08/09 03:57:52;;;;;;;4.75;2.05;;;15.40;99.90;;;;;;5058653;28;20228;-68
2023/08/09 04:00:42;;;;;;;3.95;2.40;;;15.30;99.90;;;;;;5047061;28;20235;-68
2023/08/09 04:03:31;;;;;;;4.18;2.40;;;15.30;99.90;;;;;;5051266;28;20680;-68
2023/08/09 04:06:21;;;;;;;3.83;2.65;;;15.40;99.90;;;;;;5050120;28;20307;-68
2023/08/09 04:09:10;;;;;;;4.15;2.58;;;15.50;99.90;;;;;;5059807;28;20895;-69
2023/08/09 04:12:00;;;;;;;4.45;2.47;;;15.60;99.90;;;;;;5070076;28;20302;-69
2023/08/09 04:14:50;;;;;;;4.68;2.75;;;15.70;99.90;;;;;;5078786;28;20215;-68
2023/08/09 04:17:39;;;;;;;3.72;2.13;;;15.80;99.90;;;;;;5053577;28;20718;-69
2023/08/09 04:20:28;;;;;;;2.83;2.22;;;15.80;99.90;;;;;;5060925;28;20239;-69
2023/08/09 04:23:20;;;;;;;3.05;2.33;;;15.80;99.90;;;;;;5058854;28;20567;-69
2023/08/09 04:26:09;;;;;;;4.97;2.40;;;15.80;99.90;;;;;;5074194;28;20219;-69
2023/08/09 04:28:58;;;;;;;4.32;2.58;;;15.70;99.90;;;;;;5078194;28;20246;-69
2023/08/09 04:31:50;;;;;;;3.45;2.45;;;15.70;99.90;;;;;;5073090;28;20224;-69
2023/08/09 04:34:40;;;;;;;4.35;2.50;;;15.80;99.90;;;;;;5074009;28;20231;-69
2023/08/09 04:37:29;;;;;;;2.78;2.25;;;15.70;99.90;;;;;;5070945;28;20637;-69
2023/08/09 04:40:18;;;;;;;4.75;2.40;;;15.60;99.90;;;;;;5073623;28;20234;-69
2023/08/09 04:43:06;;;;;;;4.82;2.47;;;15.40;99.90;;;;;;5078953;28;20360;-68
2023/08/09 04:45:58;;;;;;;7.60;2.80;;;15.50;99.90;;;;;;5063424;28;20258;-67
2023/08/09 04:48:48;;;;;;;4.38;2.85;;;15.80;99.90;;;;;;5075186;28;20246;-68
2023/08/09 04:51:37;;;;;;;4.13;2.75;;;15.80;99.90;;;;;;5066841;28;20707;-69
2023/08/09 04:54:26;;;;;;;4.70;2.70;;;16.00;99.90;;;;;;5073144;28;20231;-66
2023/08/09 04:57:15;;;;;;;3.58;2.47;;;16.20;99.90;;;;;;5069761;28;20231;-66
2023/08/09 05:00:08;;;;;;;3.08;2.60;;;16.30;99.90;;;;;;5076518;28;20727;-66
2023/08/09 05:02:57;;;;;;;3.05;2.30;;;16.40;99.90;;;;;;5074429;28;20303;-67
2023/08/09 05:05:48;;;;;;;3.72;2.47;;;16.40;99.90;;;;;;5074649;28;20227;-67
2023/08/09 05:08:37;;;;;;;4.13;2.70;;;16.50;99.90;;;;;;5073225;28;20615;-67
2023/08/09 05:11:25;;;;;;;4.28;2.50;;;16.50;99.90;;;;;;5055768;28;20711;-66
2023/08/09 05:14:14;;;;;;;4.13;2.30;;;16.70;99.90;;;;;;5054715;28;20239;-66
2023/08/09 05:17:04;;;;;;;2.97;2.10;;;16.70;99.90;;;;;;5050577;28;20235;-68
2023/08/09 05:19:53;;;;;;;4.25;2.33;;;16.60;99.90;;;;;;5056822;28;20250;-68
2023/08/09 05:22:44;;;;;;;4.57;2.40;;;16.70;99.90;;;;;;5036505;28;20239;-66
2023/08/09 05:25:33;;;;;;;6.80;2.58;;;16.80;99.90;;;;;;5061473;28;20217;-67
2023/08/09 05:28:22;;;;;;;2.47;1.88;;;17.10;99.90;;;;;;5055806;28;20651;-69
2023/08/09 05:31:11;;;;;;;4.72;2.10;;;17.10;99.90;;;;;;5049345;28;20228;-68
2023/08/09 05:34:00;;;;;;;3.45;2.30;;;17.30;99.90;;;;;;5040384;28;20225;-67
2023/08/09 05:36:49;;;;;;;3.30;2.10;;;17.40;99.90;;;;;;5056112;28;20247;-67
2023/08/09 05:39:39;;;;;;;3.90;2.25;;;17.60;99.90;;;;;;5035059;28;20258;-66
2023/08/09 05:42:28;;;;;;;7.22;2.47;;;17.80;99.90;;;;;;5055093;28;20227;-66
2023/08/09 05:45:17;;;;;;;3.95;2.47;;;17.70;99.90;;;;;;5048666;28;20224;-66
2023/08/09 05:48:07;;;;;;;3.92;2.20;;;17.80;99.90;;;;;;5054908;28;20568;-66
2023/08/09 05:50:56;;;;;;;2.38;2.03;;;18.10;99.90;;;;;;5046798;28;20215;-67
2023/08/09 05:53:45;;;;;;;2.70;1.77;;;18.20;99.90;;;;;;5052542;28;20776;-68
2023/08/09 05:56:35;;;;;;;3.17;1.80;;;18.00;99.90;;;;;;5044368;28;20288;-66
2023/08/09 05:59:24;;;;;;;2.75;1.83;;;18.10;99.90;;;;;;5056085;28;20715;-67
2023/08/09 06:02:13;;;;;;;7.78;1.80;;;18.30;99.90;;;;;;5050405;28;20224;-67
2023/08/09 06:05:03;;;;;;;6.72;2.00;;;18.30;99.90;;;;;;5060758;28;20228;-65
2023/08/09 06:07:52;;;;;;;3.13;1.80;;;18.40;99.90;;;;;;5057402;28;20228;-67
2023/08/09 06:10:43;;;;;;;3.22;1.88;;;18.20;99.90;;;;;;5047438;28;21141;-68
2023/08/09 06:13:33;;;;;;;3.08;2.17;;;18.10;99.90;;;;;;5055030;28;20224;-66
2023/08/09 06:16:22;;;;;;;4.15;2.30;;;18.10;99.90;;;;;;5071884;28;20587;-69
2023/08/09 06:19:11;;;;;;;14.93;1.83;;;18.10;99.90;;;;;;5081189;28;20224;-69
2023/08/09 06:22:00;;;;;;;3.78;1.80;;;18.20;99.90;;;;;;5074000;28;20234;-66
2023/08/09 06:24:49;;;;;;;10.02;2.20;;;18.10;99.90;;;;;;5082990;28;20215;-67
2023/08/09 06:27:38;;;;;;;4.07;2.67;;;18.00;99.90;;;;;;5081923;28;20239;-68
2023/08/09 06:30:29;;;;;;;5.30;1.80;;;18.20;99.90;;;;;;5071103;28;20273;-66
2023/08/09 06:33:18;;;;;;;3.05;1.50;;;18.40;99.90;;;;;;5072821;28;20219;-68
2023/08/09 06:36:08;;;;;;;2.63;1.48;;;19.10;99.90;;;;;;5075854;28;20223;-69
2023/08/09 06:38:57;;;;;;;2.55;1.50;;;21.60;99.90;;;;;;5075312;28;20234;-69
2023/08/09 06:41:46;;;;;;;3.63;1.30;;;21.10;99.90;;;;;;5079027;28;20228;-68
2023/08/09 06:44:36;;;;;;;2.72;1.60;;;20.10;99.90;;;;;;5068354;28;20590;-68
2023/08/09 06:47:26;;;;;;;3.65;1.60;;;19.80;99.90;;;;;;5070996;28;20310;-69
2023/08/09 06:50:15;;;;;;;7.07;1.50;;;19.70;99.90;;;;;;5072397;28;21033;-70
2023/08/09 06:53:04;;;;;;;3.83;1.30;;;19.60;99.90;;;;;;5070636;28;20245;-69
2023/08/09 06:55:53;;;;;;;2.03;1.30;;;19.70;99.90;;;;;;5070676;28;20223;-69
2023/08/09 06:58:42;;;;;;;3.80;1.40;;;19.70;99.90;;;;;;5070346;28;20228;-68
2023/08/09 07:01:31;;;;;;;2.92;1.25;;;19.60;99.90;;;;;;5084094;28;20272;-69
2023/08/09 07:04:22;;;;;;;5.80;1.30;;;19.80;99.90;;;;;;5068583;28;20231;-70
2023/08/09 07:07:11;;;;;;;1.40;1.30;;;19.90;99.90;;;;;;5067285;28;20334;-70
2023/08/09 07:10:00;;;;;;;4.78;2.53;;;20.00;99.90;;;;;;5075892;28;20346;-69
2023/08/09 07:12:49;;;;;;;3.13;1.20;;;20.10;99.90;;;;;;5084800;28;20326;-68
2023/08/09 07:15:38;;;;;;;2.35;1.40;;;19.90;99.90;;;;;;5067980;28;20242;-68
2023/08/09 07:18:27;;;;;;;3.03;1.40;;;20.00;99.90;;;;;;5081915;28;20224;-67
2023/08/09 07:21:18;;;;;;;5.68;1.70;;;20.10;99.90;;;;;;5074669;28;20239;-67
2023/08/09 07:24:07;;;;;;;2.95;1.55;;;20.30;99.90;;;;;;5075067;28;20220;-68
2023/08/09 07:26:56;;;;;;;4.15;1.70;;;20.30;99.90;;;;;;5074780;28;20225;-68
2023/08/09 07:29:45;;;;;;;4.50;1.73;;;20.50;99.90;;;;;;5076784;28;20228;-68
2023/08/09 07:32:34;;;;;;;3.70;1.45;;;20.60;99.90;;;;;;5071301;28;20777;-68
2023/08/09 07:35:23;;;;;;;3.47;1.80;;;20.70;99.90;;;;;;5078764;28;20252;-68
2023/08/09 07:38:13;;;;;;;3.13;1.70;;;20.90;99.90;;;;;;5082723;28;20430;-68
2023/08/09 07:41:02;;;;;;;2.72;1.55;;;21.10;99.90;;;;;;5079686;28;20689;-70
2023/08/09 07:43:51;;;;;;;3.45;1.77;;;21.10;99.90;;;;;;5077402;28;20754;-68
2023/08/09 07:46:41;;;;;;;3.35;1.35;;;21.40;99.90;;;;;;5074593;28;20224;-69
2023/08/09 07:49:30;;;;;;;9.27;1.48;;;21.60;99.90;;;;;;5071053;28;20219;-70
2023/08/09 07:52:19;;;;;;;3.47;1.55;;;22.00;99.90;;;;;;5075041;28;20375;-71
2023/08/09 07:55:09;;;;;;;4.32;1.90;;;21.60;99.90;;;;;;5061007;28;20357;-69
2023/08/09 07:57:58;;;;;;;4.20;1.80;;;22.20;99.90;;;;;;5075187;28;20228;-69
2023/08/09 08:00:47;;;;;;;5.18;1.55;;;22.20;99.90;;;;;;5074859;28;20223;-69
2023/08/09 08:03:39;;;;;;;5.15;2.00;;;22.50;99.90;;;;;;5077096;28;20234;-70
2023/08/09 08:06:28;;;;;;;4.30;1.70;;;22.40;99.90;;;;;;5076903;28;20223;-67
2023/08/09 08:09:18;;;;;;;3.95;2.00;;;22.80;99.90;;;;;;5074393;28;20276;-67
2023/08/09 08:12:11;;;;;;;3.75;1.50;;;23.10;99.90;;;;;;5080291;28;20279;-69
2023/08/09 08:15:12;;;;;;;3.95;1.50;;;23.20;99.90;;;;;;5069546;28;20226;-69
2023/08/09 08:18:01;;;;;;;4.78;1.83;;;23.40;99.90;;;;;;5076490;28;20226;-69
2023/08/09 08:20:50;;;;;;;2.58;1.70;;;24.10;99.90;;;;;;5079759;28;20936;-70
2023/08/09 08:23:39;;;;;;;8.73;1.70;;;24.30;99.90;;;;;;5078927;28;20224;-69
2023/08/09 08:26:29;;;;;;;2.55;1.40;;;23.50;99.90;;;;;;5084836;28;20226;-69
2023/08/09 08:29:19;;;;;;;3.63;1.70;;;23.60;99.90;;;;;;5080361;28;20322;-68
2023/08/09 08:32:09;;;;;;;5.40;1.92;;;24.20;99.90;;;;;;5075212;28;20275;-71
2023/08/09 08:35:02;;;;;;;2.00;1.40;;;24.10;99.90;;;;;;5071402;28;20243;-76
2023/08/09 08:37:53;;;;;;;2.50;1.60;;;24.70;99.90;;;;;;5066770;28;20239;-77
2023/08/09 08:40:42;;;;;;;1.70;1.60;;;25.20;99.90;;;;;;5070738;28;21000;-76
2023/08/09 08:43:32;;;;;;;2.72;1.80;;;24.40;99.90;;;;;;5077223;28;20644;-77
2023/08/09 08:46:26;;;;;;;3.78;1.90;;;23.60;99.90;;;;;;5074726;28;20223;-77
2023/08/09 08:49:20;;;;;;;2.28;1.88;;;24.00;99.90;;;;;;5062831;28;20859;-77
2023/08/09 08:52:13;;;;;;;3.78;1.80;;;24.30;99.90;;;;;;5076055;28;20218;-77
2023/08/09 08:55:02;;;;;;;3.78;1.88;;;25.10;99.90;;;;;;5081092;28;20530;-77
2023/08/09 08:57:53;;;;;;;3.50;2.20;;;25.50;99.90;;;;;;5078326;28;20220;-76
2023/08/09 09:00:42;;;;;;;6.50;2.08;;;25.80;99.90;;;;;;5081093;28;20305;-77
2023/08/09 09:03:33;;;;;;;3.33;1.98;;;24.50;99.90;;;;;;5068832;28;20230;-77
2023/08/09 09:06:22;;;;;;;3.05;2.20;;;23.90;99.90;;;;;;5090992;28;20223;-77
2023/08/09 09:09:13;;;;;;;2.65;1.80;;;23.80;99.90;;;;;;5075569;28;20331;-77
2023/08/09 09:12:03;;;;;;;3.97;2.10;;;23.30;99.90;;;;;;5054024;28;20910;-76
2023/08/09 09:14:53;;;;;;;3.45;2.40;;;22.90;99.90;;;;;;5060773;28;20216;-77
2023/08/09 09:17:44;;;;;;;7.32;2.15;;;22.80;99.90;;;;;;5061555;28;20563;-77
2023/08/09 09:20:34;;;;;;;2.90;2.00;;;22.70;99.90;;;;;;5060846;28;20240;-77
2023/08/09 09:23:28;;;;;;;9.07;3.78;;;22.50;99.90;;;;;;5062085;28;20243;-77
2023/08/09 09:26:18;;;;;;;4.47;1.80;;;22.80;99.90;;;;;;5050577;28;20321;-77
2023/08/09 09:29:08;;;;;;;2.70;1.70;;;22.40;99.90;;;;;;5070241;28;20283;-76
2023/08/09 09:32:00;;;;;;;2.97;1.83;;;22.30;99.90;;;;;;5054379;28;20255;-77
2023/08/09 09:34:51;;;;;;;3.15;1.83;;;22.20;99.90;;;;;;5065632;28;20293;-76
2023/08/09 09:37:47;;;;;;;2.75;1.98;;;22.10;99.90;;;;;;5055007;28;20251;-77
2023/08/09 09:40:37;;;;;;;5.28;2.03;;;22.40;99.90;;;;;;5054453;28;20236;-77
2023/08/09 09:43:26;;;;;;;5.15;2.20;;;22.50;99.90;;;;;;5053950;28;20353;-77
2023/08/09 09:46:20;;;;;;;8.30;2.50;;;22.20;99.90;;;;;;5054012;28;20245;-77
2023/08/09 09:49:24;;;;;;;5.68;1.85;;;21.90;99.90;;;;;;5053510;28;20764;-77
2023/08/09 09:52:14;;;;;;;3.83;1.90;;;21.80;99.90;;;;;;5037303;28;20231;-76
2023/08/09 09:55:07;;;;;;;4.78;2.00;;;22.20;99.90;;;;;;5038737;28;20221;-76
2023/08/09 09:57:57;;;;;;;5.75;2.17;;;23.10;99.90;;;;;;5055532;28;20244;-76
2023/08/09 10:00:50;;;;;;;2.50;1.80;;;24.10;99.90;;;;;;5054684;28;20230;-77
2023/08/09 10:03:42;;;;;;;3.00;1.80;;;23.50;99.90;;;;;;5048900;28;20213;-77
2023/08/09 10:06:43;;;;;;;7.93;1.88;;;23.00;99.90;;;;;;5051884;28;20334;-78
2023/08/09 10:09:33;;;;;;;3.22;1.77;;;22.70;99.90;;;;;;5067742;28;20223;-77
2023/08/09 10:12:24;;;;;;;2.15;1.67;;;22.40;99.90;;;;;;5077733;28;20220;-77
2023/08/09 10:15:15;;;;;;;2.75;1.95;;;22.40;99.90;;;;;;5078622;28;20463;-77
2023/08/09 10:18:10;;;;;;;2.13;1.70;;;22.50;99.90;;;;;;5079676;28;20228;-77
2023/08/09 10:21:03;;;;;;;3.80;1.95;;;22.60;99.90;;;;;;5067360;28;20219;-76
2023/08/09 10:23:57;;;;;;;3.92;2.47;;;22.50;99.90;;;;;;5069496;28;20954;-77
2023/08/09 10:26:49;;;;;;;4.78;2.03;;;22.40;99.90;;;;;;5081198;28;20231;-77
2023/08/09 10:29:42;;;;;;;6.07;2.35;;;22.30;99.90;;;;;;5071225;28;20322;-77
2023/08/09 10:32:50;;;;;;;5.07;2.30;;;23.20;99.90;;;;;;5073201;28;20251;-76
2023/08/09 10:35:48;;;;;;;4.90;1.95;;;23.30;99.90;;;;;;5072121;28;20224;-78
2023/08/09 10:38:41;;;;;;;3.72;2.10;;;23.10;99.90;;;;;;5080631;28;20606;-78
2023/08/09 10:41:37;;;;;;;3.40;1.80;;;23.00;99.90;;;;;;5083478;28;20236;-78
2023/08/09 10:44:37;;;;;;;3.20;1.92;;;23.40;99.90;;;;;;5082400;28;20238;-77
2023/08/09 10:47:27;;;;;;;5.30;2.10;;;26.80;96.30;;;;;;5076752;28;20227;-77
2023/08/09 10:50:17;;;;;;;3.42;2.03;;;26.80;94.50;;;;;;5058631;28;20228;-78
2023/08/09 10:53:14;;;;;;;4.10;2.15;;;25.80;98.00;;;;;;5080706;28;20226;-78
2023/08/09 10:56:05;;;;;;;4.25;2.30;;;24.90;98.10;;;;;;5066271;28;20305;-78
2023/08/09 10:58:54;;;;;;;3.05;2.08;;;26.80;99.90;;;;;;5076841;28;20574;-78
2023/08/09 11:01:44;;;;;;;3.97;2.33;;;28.40;95.10;;;;;;5080373;28;20220;-78
2023/08/09 11:04:35;;;;;;;4.57;2.00;;;29.70;91.80;;;;;;5074320;28;20711;-75
2023/08/09 11:07:24;;;;;;;2.42;1.90;;;27.60;90.30;;;;;;5080491;28;20718;-76
2023/08/09 11:10:13;;;;;;;2.25;1.67;;;26.30;94.30;;;;;;5079016;28;20224;-76
2023/08/09 11:13:07;;;;;;;3.95;1.98;;;25.20;93.60;;;;;;5076842;28;20212;-76
2023/08/09 11:15:56;;;;;;;6.32;2.05;;;24.60;94.90;;;;;;5066899;28;20269;-75
2023/08/09 11:18:45;;;;;;;2.17;1.52;;;24.10;97.00;;;;;;5082600;28;20224;-77
2023/08/09 11:21:46;;;;;;;4.20;2.03;;;23.60;96.80;;;;;;5073335;28;20234;-76
2023/08/09 11:24:35;;;;;;;4.32;1.98;;;23.40;96.30;;;;;;5083650;28;20241;-76
2023/08/09 11:27:23;;;;;;;3.67;1.88;;;23.10;97.90;;;;;;5078647;28;20221;-77
2023/08/09 11:30:13;;;;;;;2.80;1.80;;;23.00;99.90;;;;;;5072410;28;20234;-77
2023/08/09 11:33:04;;;;;;;2.42;2.00;;;22.90;99.30;;;;;;5078261;28;20310;-77
2023/08/09 11:35:54;;;;;;;3.85;2.45;;;22.90;98.20;;;;;;5079330;28;20242;-77
2023/08/09 11:38:44;;;;;;;6.53;2.15;;;23.40;98.70;;;;;;5073316;28;20239;-76
2023/08/09 11:41:42;;;;;;;5.63;2.20;;;23.40;97.50;;;;;;5073015;28;20224;-76
2023/08/09 11:44:34;;;;;;;4.82;1.95;;;23.20;97.60;;;;;;5077495;28;20212;-77
2023/08/09 11:47:26;;;;;;;4.38;2.20;;;23.10;97.80;;;;;;5075211;28;21095;-77
2023/08/09 11:50:21;;;;;;;3.28;2.10;;;23.20;98.60;;;;;;5081695;28;20219;-77
2023/08/09 11:53:11;;;;;;;4.07;1.85;;;23.00;99.60;;;;;;5078660;28;20279;-77
2023/08/09 11:56:02;;;;;;;2.72;1.98;;;22.80;99.90;;;;;;5073649;28;20222;-77
2023/08/09 11:58:52;;;;;;;4.72;2.10;;;22.50;98.80;;;;;;5076161;28;22029;-75
2023/08/09 12:01:46;;;;;;;3.83;2.33;;;22.30;98.90;;;;;;5072975;28;20215;-74
2023/08/09 12:04:38;;;;;;;6.72;2.45;;;22.20;99.70;;;;;;5082825;28;20769;-74
2023/08/09 12:07:27;;;;;;;4.35;2.40;;;22.10;99.90;;;;;;5075286;28;20738;-75
2023/08/09 12:10:21;;;;;;;3.08;2.20;;;22.00;99.90;;;;;;5068012;28;20231;-74
2023/08/09 12:13:13;;;;;;;4.35;2.50;;;21.60;99.90;;;;;;5070754;28;20302;-74
2023/08/09 12:16:06;;;;;;;6.35;2.38;;;21.20;99.90;;;;;;5072001;28;20302;-74
2023/08/09 12:18:55;;;;;;;6.18;2.85;;;21.10;99.90;;;;;;5076074;28;20242;-73
2023/08/09 12:21:44;;;;;;;4.95;3.30;;;21.00;99.90;;;;;;5076259;28;20239;-74
2023/08/09 12:24:33;;;;;;;5.75;2.78;;;21.10;99.90;;;;;;5075937;28;20232;-73
2023/08/09 12:27:23;;;;;;;6.47;3.17;;;21.00;99.90;;;;;;5074934;28;21171;-73
2023/08/09 12:30:15;;;;;;;3.85;2.95;;;20.90;99.90;;;;;;5070369;28;20223;-73
2023/08/09 12:33:05;;;;;;;6.82;2.97;;;20.80;99.90;;;;;;5079034;28;20223;-73
2023/08/09 12:35:55;;;;;;;4.75;3.00;;;20.80;99.90;;;;;;5077158;28;20216;-74
2023/08/09 12:38:44;;;;;;;4.47;3.03;;;20.70;99.90;;;;;;5077863;28;20228;-73
2023/08/09 12:41:33;;;;;;;4.28;3.00;;;20.60;99.90;;;;;;5074749;28;20228;-73
2023/08/09 12:44:22;;;;;;;7.40;3.33;;;20.70;99.90;;;;;;5074959;28;20227;-73
2023/08/09 12:47:13;;;;;;;9.50;5.47;;;21.10;99.90;;;;;;5079585;28;20242;-73
2023/08/09 12:50:02;;;;;;;4.65;3.25;;;21.50;99.90;;;;;;5076350;28;20755;-73
2023/08/09 12:52:52;;;;;;;3.42;2.67;;;21.80;99.90;;;;;;5076675;28;20722;-73
2023/08/09 12:55:55;;;;;;;3.17;2.60;;;21.70;99.90;;;;;;5072348;28;20261;-73
2023/08/09 12:58:44;;;;;;;4.78;2.90;;;21.70;99.90;;;;;;5070882;28;20248;-73
2023/08/09 13:01:34;;;;;;;5.65;3.47;;;21.70;99.90;;;;;;5059084;28;20223;-74
2023/08/09 13:04:25;;;;;;;5.38;3.58;;;21.60;99.90;;;;;;5079590;28;20306;-75
2023/08/09 13:07:15;;;;;;;6.90;3.30;;;21.60;99.90;;;;;;5082087;28;20227;-75
2023/08/09 13:10:06;;;;;;;3.08;2.67;;;21.60;99.90;;;;;;5071095;28;20296;-76
2023/08/09 13:12:55;;;;;;;7.07;3.00;;;21.50;99.90;;;;;;5073534;28;20227;-70
2023/08/09 13:15:44;;;;;;;7.53;2.72;;;21.30;99.90;;;;;;5075621;28;20253;-68
2023/08/09 13:18:33;;;;;;;4.90;2.53;;;21.10;99.90;;;;;;5072737;28;20780;-71
2023/08/09 13:21:24;;;;;;;4.32;2.50;;;21.00;99.90;;;;;;5070014;28;20247;-71
2023/08/09 13:24:13;;;;;;;9.82;2.80;;;20.80;99.90;;;;;;5071644;28;20261;-71
2023/08/09 13:27:04;;;;;;;3.65;2.45;;;20.50;99.90;;;;;;5066935;28;20211;-70
2023/08/09 13:29:53;;;;;;;4.18;2.70;;;20.30;99.90;;;;;;5072791;28;20220;-67
2023/08/09 13:32:44;;;;;;;9.63;2.83;;;20.00;99.90;;;;;;5077861;28;20226;-67
2023/08/09 13:35:35;;;;;;;5.40;2.60;;;19.80;99.90;;;;;;5072775;28;20235;-67
2023/08/09 13:38:29;;;;;;;10.07;3.17;;;19.50;99.90;;;;;;5068591;28;20589;-67
2023/08/09 13:41:19;;;;;;;7.18;3.17;;;19.50;99.90;;;;;;5070440;28;20219;-67
2023/08/09 13:44:08;;;;;;;7.75;2.97;;;19.40;99.90;;;;;;5072778;28;20548;-68
2023/08/09 13:46:57;;;;;;;9.18;3.45;;;19.20;99.90;;;;;;5072390;28;20228;-68
2023/08/09 13:49:45;;;;;;;6.22;3.08;;;19.10;99.90;;;;;;5073623;28;20222;-68
2023/08/09 13:52:35;;;;;;;5.70;3.47;;;19.10;99.90;;;;;;5068906;28;20231;-67
2023/08/09 13:55:25;;;;;;;7.93;3.25;;;18.90;99.90;;;;;;5072669;28;20223;-68
2023/08/09 13:58:14;;;;;;;7.18;4.15;;;18.80;99.90;;;;;;5073442;28;20634;-66
2023/08/09 14:01:04;;;;;;;5.90;3.88;;;18.60;99.90;;;;;;5054387;28;20224;-66
2023/08/09 14:03:55;;;;;;;11.05;4.25;;;18.40;99.90;;;;;;5058483;28;20327;-65
2023/08/09 14:06:44;;;;;;;8.75;3.95;;;18.30;99.90;;;;;;5076503;28;20224;-66
2023/08/09 14:09:35;;;;;;;6.90;3.75;;;18.20;99.90;;;;;;5069971;28;20712;-66
2023/08/09 14:12:25;;;;;;;8.02;4.57;;;18.00;99.90;;;;;;5055732;28;20243;-67
2023/08/09 14:15:14;;;;;;;9.82;4.68;;;17.90;99.90;;;;;;5058399;28;20826;-66
2023/08/09 14:18:04;;;;;;;8.63;4.72;;;18.00;99.90;;;;;;5047136;28;20307;-66
2023/08/09 14:20:56;;;;;;;8.85;4.50;;;17.90;99.90;;;;;;5050713;28;20228;-66
2023/08/09 14:23:45;;;;;;;6.70;4.45;;;17.90;99.90;;;;;;5044079;28;20236;-71
2023/08/09 14:26:35;;;;;;;10.30;4.20;;;17.70;99.90;;;;;;5056001;28;20225;-68
2023/08/09 14:29:25;;;;;;;5.93;3.80;;;17.90;99.90;;;;;;5054295;28;20229;-69
2023/08/09 14:32:14;;;;;;;9.65;4.95;;;17.70;99.90;;;;;;5052349;28;20228;-69
2023/08/09 14:35:08;;;;;;;5.28;4.20;;;17.50;99.90;;;;;;5055280;28;20233;-68
2023/08/09 14:37:57;;;;;;;12.60;4.20;;;17.40;99.90;;;;;;5052291;28;20227;-66
2023/08/09 14:40:47;;;;;;;7.82;4.28;;;17.20;99.90;;;;;;5059438;28;20216;-65
2023/08/09 14:43:36;;;;;;;7.43;4.75;;;17.20;99.90;;;;;;5051414;28;21659;-66
2023/08/09 14:46:26;;;;;;;7.82;4.00;;;17.40;99.90;;;;;;5053032;28;20274;-66